createdAt,value
2023-05-16T00:00:48.395Z,14.20
2023-05-16T00:03:15.573Z,14.20
2023-05-16T00:05:42.718Z,14.30
2023-05-16T00:08:09.725Z,14.30
2023-05-16T00:10:37.590Z,14.30
2023-05-16T00:13:04.889Z,14.20
2023-05-16T00:15:31.858Z,14.20
2023-05-16T00:17:59.598Z,14.20
2023-05-16T00:20:28.276Z,14.20
2023-05-16T00:22:56.002Z,14.20
2023-05-16T00:25:23.680Z,14.10
2023-05-16T00:27:50.823Z,14.10
2023-05-16T00:30:18.014Z,14.10
2023-05-16T00:32:45.195Z,14.10
2023-05-16T00:35:12.731Z,14.10
2023-05-16T00:37:40.245Z,14.20
2023-05-16T00:40:08.142Z,14.20
2023-05-16T00:42:35.247Z,14.20
2023-05-16T00:45:02.394Z,14.20
2023-05-16T00:47:29.577Z,14.20
2023-05-16T00:49:57.107Z,14.20
2023-05-16T00:52:24.807Z,14.20
2023-05-16T00:54:52.423Z,14.20
2023-05-16T00:57:19.576Z,14.10
2023-05-16T00:59:47.387Z,14.10
2023-05-16T01:02:14.758Z,14.20
2023-05-16T01:04:43.527Z,14.10
2023-05-16T01:07:10.576Z,14.20
2023-05-16T01:09:37.974Z,14.10
2023-05-16T01:12:19.973Z,14.10
2023-05-16T01:14:55.383Z,14.10
2023-05-16T01:17:59.774Z,14.10
2023-05-16T01:20:48.470Z,14.10
2023-05-16T01:23:37.132Z,14.10
2023-05-16T01:26:23.325Z,14.10
2023-05-16T01:28:52.412Z,14.10
2023-05-16T01:31:20.529Z,14.20
2023-05-16T01:33:48.315Z,14.20
2023-05-16T01:36:40.223Z,14.20
2023-05-16T01:39:27.372Z,14.20
2023-05-16T01:42:15.080Z,14.20
2023-05-16T01:44:52.893Z,14.10
2023-05-16T01:47:23.542Z,14.10
2023-05-16T01:50:20.898Z,14.10
2023-05-16T01:52:59.250Z,14.10
2023-05-16T01:55:52.218Z,14.10
2023-05-16T01:58:26.332Z,14.00
2023-05-16T02:00:54.266Z,14.00
2023-05-16T02:03:21.316Z,14.00
2023-05-16T02:05:48.452Z,14.00
2023-05-16T02:08:15.593Z,14.00
2023-05-16T02:10:42.695Z,14.00
2023-05-16T02:13:10.167Z,14.00
2023-05-16T02:15:37.296Z,14.00
2023-05-16T02:18:04.487Z,13.90
2023-05-16T02:20:31.777Z,13.90
2023-05-16T02:22:59.159Z,14.00
2023-05-16T02:25:26.655Z,14.00
2023-05-16T02:27:53.774Z,14.00
2023-05-16T02:30:21.013Z,14.00
2023-05-16T02:32:49.288Z,14.00
2023-05-16T02:35:16.378Z,14.00
2023-05-16T02:37:43.652Z,14.00
2023-05-16T02:40:11.117Z,14.00
2023-05-16T02:42:38.186Z,13.90
2023-05-16T02:45:05.916Z,13.90
2023-05-16T02:47:32.995Z,13.90
2023-05-16T02:50:00.108Z,13.90
2023-05-16T02:52:27.166Z,14.00
2023-05-16T02:57:24.173Z,13.90
2023-05-16T02:59:51.255Z,13.90
2023-05-16T03:02:18.392Z,14.00
2023-05-16T03:04:45.515Z,14.00
2023-05-16T03:07:12.552Z,14.00
2023-05-16T03:09:39.632Z,14.00
2023-05-16T03:12:07.158Z,14.00
2023-05-16T03:14:34.456Z,14.00
2023-05-16T03:17:01.445Z,14.00
2023-05-16T03:19:28.460Z,14.00
2023-05-16T03:21:55.704Z,14.00
2023-05-16T03:24:23.221Z,14.00
2023-05-16T03:26:50.532Z,14.00
2023-05-16T03:29:17.596Z,14.00
2023-05-16T03:31:44.673Z,14.00
2023-05-16T03:34:11.816Z,14.00
2023-05-16T03:36:41.462Z,14.00
2023-05-16T03:39:08.817Z,14.00
2023-05-16T03:41:35.948Z,14.00
2023-05-16T03:44:03.001Z,14.00
2023-05-16T03:46:30.176Z,14.00
2023-05-16T03:48:57.229Z,14.00
2023-05-16T03:51:24.573Z,14.00
2023-05-16T03:53:51.690Z,14.00
2023-05-16T03:56:18.834Z,14.00
2023-05-16T03:58:45.997Z,13.90
2023-05-16T04:01:12.974Z,13.90
2023-05-16T04:03:40.145Z,13.90
2023-05-16T04:06:08.065Z,13.90
2023-05-16T04:08:35.228Z,13.90
2023-05-16T04:11:02.407Z,13.90
2023-05-16T04:13:29.584Z,13.90
2023-05-16T04:15:56.714Z,13.90
2023-05-16T04:18:23.792Z,13.90
2023-05-16T04:20:50.792Z,13.90
2023-05-16T04:23:17.927Z,13.90
2023-05-16T04:25:45.092Z,14.00
2023-05-16T04:28:12.614Z,13.90
2023-05-16T04:30:39.771Z,14.00
2023-05-16T04:33:07.468Z,14.00
2023-05-16T04:35:35.628Z,14.00
2023-05-16T04:38:03.144Z,14.10
2023-05-16T04:40:30.701Z,14.10
2023-05-16T04:42:58.988Z,14.10
2023-05-16T04:45:26.927Z,14.10
2023-05-16T04:47:54.538Z,14.20
2023-05-16T04:50:21.970Z,14.20
2023-05-16T04:52:49.157Z,14.20
2023-05-16T04:55:16.605Z,14.20
2023-05-16T04:57:43.776Z,14.20
2023-05-16T05:00:12.602Z,14.20
2023-05-16T05:02:40.170Z,14.20
2023-05-16T05:05:08.855Z,14.10
2023-05-16T05:07:36.211Z,14.10
2023-05-16T05:10:03.566Z,14.10
2023-05-16T05:12:30.993Z,14.00
2023-05-16T05:14:58.224Z,14.10
2023-05-16T05:17:25.628Z,14.00
2023-05-16T05:19:52.727Z,14.00
2023-05-16T05:22:19.776Z,14.00
2023-05-16T05:24:47.065Z,14.10
2023-05-16T05:27:14.296Z,14.10
2023-05-16T05:29:41.537Z,14.10
2023-05-16T05:32:08.749Z,14.10
2023-05-16T05:34:36.015Z,14.10
2023-05-16T05:37:03.077Z,14.10
2023-05-16T05:39:30.099Z,14.10
2023-05-16T05:41:57.273Z,14.10
2023-05-16T05:44:24.405Z,14.10
2023-05-16T05:46:51.533Z,14.20
2023-05-16T05:49:18.622Z,14.10
2023-05-16T05:51:45.825Z,14.20
2023-05-16T05:54:13.551Z,14.30
2023-05-16T05:56:40.630Z,14.30
2023-05-16T05:59:07.727Z,14.30
2023-05-16T06:01:34.821Z,14.40
2023-05-16T06:04:02.642Z,14.50
2023-05-16T06:06:29.855Z,14.60
2023-05-16T06:08:56.981Z,14.60
2023-05-16T06:11:25.395Z,14.70
2023-05-16T06:13:52.855Z,14.70
2023-05-16T06:16:20.447Z,14.70
2023-05-16T06:18:49.071Z,14.80
2023-05-16T06:21:16.161Z,14.70
2023-05-16T06:23:43.296Z,14.80
2023-05-16T06:26:10.401Z,14.70
2023-05-16T06:28:37.391Z,14.80
2023-05-16T06:31:04.625Z,14.80
2023-05-16T06:33:33.924Z,14.90
2023-05-16T06:36:01.023Z,14.90
2023-05-16T06:38:28.035Z,15.00
2023-05-16T06:40:55.020Z,15.00
2023-05-16T06:43:22.259Z,15.10
2023-05-16T06:45:49.680Z,15.30
2023-05-16T06:48:19.295Z,15.40
2023-05-16T06:50:52.091Z,15.70
2023-05-16T06:53:19.485Z,15.80
2023-05-16T06:55:47.722Z,15.80
2023-05-16T06:58:15.366Z,16.00
2023-05-16T07:00:42.502Z,16.00
2023-05-16T07:03:09.783Z,16.10
2023-05-16T07:05:37.018Z,16.00
2023-05-16T07:08:06.274Z,15.90
2023-05-16T07:10:34.964Z,15.90
2023-05-16T07:13:02.469Z,15.90
2023-05-16T07:15:29.830Z,16.00
2023-05-16T07:17:57.486Z,16.00
2023-05-16T07:20:24.908Z,15.90
2023-05-16T07:22:52.059Z,15.90
2023-05-16T07:25:19.248Z,15.90
2023-05-16T07:27:46.343Z,15.90
2023-05-16T07:30:14.401Z,16.00
2023-05-16T07:32:42.038Z,16.10
2023-05-16T07:35:09.769Z,16.10
2023-05-16T07:37:37.239Z,16.10
2023-05-16T07:40:04.922Z,16.20
2023-05-16T07:42:32.380Z,16.40
2023-05-16T07:44:59.624Z,16.70
2023-05-16T07:47:27.221Z,16.80
2023-05-16T07:49:54.378Z,16.90
2023-05-16T07:52:21.600Z,17.00
2023-05-16T07:54:48.718Z,17.00
2023-05-16T07:57:16.398Z,16.80
2023-05-16T07:59:44.565Z,16.60
2023-05-16T08:02:12.173Z,16.70
2023-05-16T08:04:39.725Z,16.70
2023-05-16T08:07:06.828Z,16.70
2023-05-16T08:09:34.074Z,16.70
2023-05-16T08:12:03.876Z,16.90
2023-05-16T08:14:34.437Z,16.90
2023-05-16T08:17:01.655Z,16.80
2023-05-16T08:19:29.774Z,16.90
2023-05-16T08:21:57.067Z,17.20
2023-05-16T08:24:25.005Z,17.30
2023-05-16T08:26:52.667Z,17.50
2023-05-16T08:29:19.931Z,17.30
2023-05-16T08:31:47.595Z,17.50
2023-05-16T08:34:15.119Z,17.80
2023-05-16T08:36:42.394Z,18.20
2023-05-16T08:39:11.872Z,18.40
2023-05-16T08:41:39.651Z,18.50
2023-05-16T08:44:07.017Z,18.30
2023-05-16T08:46:37.336Z,18.20
2023-05-16T08:49:08.159Z,18.10
2023-05-16T08:51:37.839Z,18.30
2023-05-16T08:54:10.787Z,18.20
2023-05-16T08:56:38.989Z,18.00
2023-05-16T08:59:07.008Z,17.90
2023-05-16T09:01:34.829Z,18.00
2023-05-16T09:04:04.030Z,18.00
2023-05-16T09:06:31.632Z,17.90
2023-05-16T09:08:59.072Z,17.80
2023-05-16T09:11:26.277Z,17.60
2023-05-16T09:13:53.530Z,17.20
2023-05-16T09:16:21.617Z,16.90
2023-05-16T09:18:58.044Z,16.80
2023-05-16T09:21:32.204Z,16.60
2023-05-16T09:24:07.170Z,16.70
2023-05-16T09:26:39.528Z,16.70
2023-05-16T09:29:13.628Z,16.70
2023-05-16T09:31:41.255Z,16.90
2023-05-16T09:34:11.445Z,17.30
2023-05-16T09:36:39.451Z,17.90
2023-05-16T09:39:08.195Z,18.20
2023-05-16T09:41:36.686Z,18.20
2023-05-16T09:44:07.237Z,18.10
2023-05-16T09:46:38.932Z,17.90
2023-05-16T09:49:06.592Z,18.10
2023-05-16T09:51:34.856Z,18.10
2023-05-16T09:54:02.030Z,17.80
2023-05-16T09:56:30.273Z,17.40
2023-05-16T09:58:57.658Z,17.40
2023-05-16T10:01:25.564Z,17.20
2023-05-16T10:03:52.979Z,17.40
2023-05-16T10:06:20.974Z,17.90
2023-05-16T10:08:48.731Z,18.00
2023-05-16T10:11:17.593Z,18.10
2023-05-16T10:13:50.504Z,18.10
2023-05-16T10:16:22.194Z,18.00
2023-05-16T10:18:51.069Z,18.00
2023-05-16T10:21:21.933Z,18.10
2023-05-16T10:23:51.884Z,18.10
2023-05-16T10:26:21.611Z,18.00
2023-05-16T10:28:49.487Z,17.80
2023-05-16T10:31:17.442Z,17.60
2023-05-16T10:33:45.101Z,17.70
2023-05-16T10:36:13.205Z,17.50
2023-05-16T10:38:41.488Z,17.40
2023-05-16T10:41:09.596Z,17.30
2023-05-16T10:43:36.937Z,17.30
2023-05-16T10:46:07.497Z,17.30
2023-05-16T10:48:37.120Z,17.10
2023-05-16T10:51:24.919Z,17.10
2023-05-16T10:53:55.512Z,17.20
2023-05-16T10:56:27.543Z,17.10
2023-05-16T10:58:56.180Z,17.10
2023-05-16T11:01:36.775Z,17.10
2023-05-16T11:04:11.722Z,17.00
2023-05-16T11:06:53.726Z,16.90
2023-05-16T11:09:27.646Z,16.90
2023-05-16T11:12:03.644Z,16.90
2023-05-16T11:14:42.470Z,17.10
2023-05-16T11:17:15.117Z,17.30
2023-05-16T11:19:43.948Z,17.60
2023-05-16T11:22:34.569Z,17.70
2023-05-16T11:25:08.885Z,17.80
2023-05-16T11:27:37.118Z,17.70
2023-05-16T11:30:07.425Z,17.80
2023-05-16T11:32:36.068Z,17.90
2023-05-16T11:35:04.350Z,17.90
2023-05-16T11:37:31.594Z,18.00
2023-05-16T11:40:04.448Z,17.90
2023-05-16T11:42:34.867Z,17.70
2023-05-16T11:45:07.357Z,17.60
2023-05-16T11:47:36.509Z,17.50
2023-05-16T11:50:26.607Z,17.20
2023-05-16T11:52:56.384Z,17.20
2023-05-16T11:55:41.673Z,17.00
2023-05-16T11:58:12.347Z,16.90
2023-05-16T12:00:48.590Z,16.90
2023-05-16T12:03:16.180Z,16.90
2023-05-16T12:05:54.588Z,16.80
2023-05-16T12:08:22.430Z,16.80
2023-05-16T12:10:51.804Z,16.70
2023-05-16T12:13:21.562Z,16.70
2023-05-16T12:15:49.401Z,16.60
2023-05-16T12:18:17.416Z,16.60
2023-05-16T12:20:45.298Z,16.50
2023-05-16T12:23:16.664Z,16.60
2023-05-16T12:25:47.945Z,16.60
2023-05-16T12:28:16.414Z,16.60
2023-05-16T12:30:46.332Z,16.60
2023-05-16T12:33:15.776Z,16.70
2023-05-16T12:35:45.384Z,16.70
2023-05-16T12:38:14.581Z,16.60
2023-05-16T12:40:43.682Z,16.70
2023-05-16T12:43:19.628Z,16.70
2023-05-16T12:45:54.957Z,16.70
2023-05-16T12:48:23.134Z,16.80
2023-05-16T12:50:51.131Z,16.90
2023-05-16T12:53:19.215Z,17.00
2023-05-16T12:55:46.706Z,17.00
2023-05-16T12:58:14.135Z,17.20
2023-05-16T13:00:41.452Z,17.40
2023-05-16T13:03:08.779Z,17.60
2023-05-16T13:05:36.661Z,17.60
2023-05-16T13:08:04.427Z,17.30
2023-05-16T13:10:33.394Z,17.40
2023-05-16T13:13:00.609Z,17.80
2023-05-16T13:15:28.231Z,18.10
2023-05-16T13:17:56.075Z,18.60
2023-05-16T13:20:23.836Z,19.10
2023-05-16T13:22:51.206Z,19.40
2023-05-16T13:25:18.500Z,19.60
2023-05-16T13:27:46.531Z,19.70
2023-05-16T13:30:14.016Z,19.70
2023-05-16T13:32:42.018Z,19.50
2023-05-16T13:35:10.480Z,19.20
2023-05-16T13:37:38.046Z,18.80
2023-05-16T13:40:06.034Z,18.50
2023-05-16T13:42:33.506Z,18.20
2023-05-16T13:45:00.599Z,18.10
2023-05-16T13:47:27.832Z,18.10
2023-05-16T13:49:55.040Z,18.00
2023-05-16T13:52:22.190Z,18.00
2023-05-16T13:54:49.462Z,17.90
2023-05-16T13:57:16.811Z,17.80
2023-05-16T14:02:14.189Z,17.80
2023-05-16T14:04:41.653Z,17.70
2023-05-16T14:07:11.212Z,17.60
2023-05-16T14:09:39.700Z,17.70
2023-05-16T14:12:07.952Z,17.70
2023-05-16T14:14:35.954Z,17.60
2023-05-16T14:17:04.380Z,17.70
2023-05-16T14:19:31.943Z,17.70
2023-05-16T14:21:59.262Z,17.70
2023-05-16T14:24:26.806Z,17.60
2023-05-16T14:26:58.533Z,17.80
2023-05-16T14:29:25.882Z,17.80
2023-05-16T14:31:53.760Z,17.70
2023-05-16T14:34:22.546Z,17.70
2023-05-16T14:36:51.119Z,17.80
2023-05-16T14:39:18.502Z,17.90
2023-05-16T14:41:45.923Z,18.00
2023-05-16T14:44:13.156Z,18.20
2023-05-16T14:46:40.418Z,18.10
2023-05-16T14:49:08.231Z,18.00
2023-05-16T14:51:35.911Z,17.90
2023-05-16T14:54:03.144Z,18.00
2023-05-16T14:56:31.004Z,18.10
2023-05-16T14:58:58.529Z,18.10
2023-05-16T15:01:26.091Z,18.40
2023-05-16T15:03:56.738Z,18.80
2023-05-16T15:06:27.733Z,18.90
2023-05-16T15:08:58.723Z,19.10
2023-05-16T15:11:29.613Z,19.70
2023-05-16T15:13:57.500Z,20.40
2023-05-16T15:16:27.387Z,21.60
2023-05-16T15:18:56.583Z,23.00
2023-05-16T15:21:26.826Z,22.60
2023-05-16T15:23:56.852Z,21.30
2023-05-16T15:26:25.004Z,21.80
2023-05-16T15:28:52.399Z,23.00
2023-05-16T15:31:19.621Z,23.10
2023-05-16T15:33:48.561Z,22.90
2023-05-16T15:36:15.972Z,23.10
2023-05-16T15:38:45.820Z,24.10
2023-05-16T15:41:31.444Z,24.60
2023-05-16T15:44:01.132Z,22.90
2023-05-16T15:46:30.485Z,22.00
2023-05-16T15:48:58.007Z,21.90
2023-05-16T15:51:25.378Z,22.00
2023-05-16T15:53:53.424Z,21.50
2023-05-16T15:56:21.810Z,21.10
2023-05-16T15:58:49.004Z,20.70
2023-05-16T16:01:16.761Z,20.40
2023-05-16T16:03:44.032Z,20.30
2023-05-16T16:06:11.576Z,20.30
2023-05-16T16:08:38.844Z,20.30
2023-05-16T16:11:06.139Z,20.10
2023-05-16T16:13:33.358Z,20.00
2023-05-16T16:16:00.850Z,19.90
2023-05-16T16:18:28.206Z,19.80
2023-05-16T16:20:55.646Z,19.40
2023-05-16T16:23:22.934Z,18.80
2023-05-16T16:25:50.586Z,18.70
2023-05-16T16:28:17.816Z,18.70
2023-05-16T16:30:47.490Z,18.70
2023-05-16T16:33:14.823Z,18.40
2023-05-16T16:35:42.134Z,18.50
2023-05-16T16:38:09.632Z,18.60
2023-05-16T16:40:36.872Z,18.60
2023-05-16T16:43:06.521Z,18.80
2023-05-16T16:45:33.844Z,18.90
2023-05-16T16:48:01.337Z,18.90
2023-05-16T16:50:28.612Z,19.00
2023-05-16T16:52:56.205Z,19.00
2023-05-16T16:55:23.348Z,18.80
2023-05-16T16:57:50.789Z,18.50
2023-05-16T17:00:19.307Z,18.30
2023-05-16T17:02:47.030Z,18.00
2023-05-16T17:05:14.364Z,17.90
2023-05-16T17:07:41.589Z,17.90
2023-05-16T17:10:09.475Z,18.00
2023-05-16T17:12:40.835Z,18.00
2023-05-16T17:15:08.637Z,17.90
2023-05-16T17:17:35.929Z,17.80
2023-05-16T17:20:06.732Z,17.70
2023-05-16T17:22:34.058Z,17.70
2023-05-16T17:25:01.390Z,17.60
2023-05-16T17:27:28.516Z,17.60
2023-05-16T17:29:55.710Z,17.60
2023-05-16T17:32:22.948Z,17.30
2023-05-16T17:34:50.465Z,17.10
2023-05-16T17:37:17.909Z,16.80
2023-05-16T17:39:45.409Z,16.70
2023-05-16T17:42:12.704Z,16.70
2023-05-16T17:44:41.427Z,16.80
2023-05-16T17:47:08.697Z,16.90
2023-05-16T17:49:36.314Z,16.80
2023-05-16T17:52:03.555Z,16.80
2023-05-16T17:54:32.337Z,16.80
2023-05-16T17:57:00.639Z,16.80
2023-05-16T17:59:27.902Z,16.80
2023-05-16T18:01:57.593Z,16.70
2023-05-16T18:04:25.689Z,16.70
2023-05-16T18:06:53.109Z,16.60
2023-05-16T18:09:21.122Z,16.50
2023-05-16T18:11:48.569Z,16.50
2023-05-16T18:14:15.826Z,16.50
2023-05-16T18:16:44.108Z,16.50
2023-05-16T18:19:11.887Z,16.40
2023-05-16T18:21:40.113Z,16.40
2023-05-16T18:24:08.811Z,16.30
2023-05-16T18:26:36.946Z,16.40
2023-05-16T18:29:04.313Z,16.40
2023-05-16T18:31:33.750Z,16.40
2023-05-16T18:34:04.070Z,16.40
2023-05-16T18:36:33.016Z,16.40
2023-05-16T18:39:00.377Z,16.50
2023-05-16T18:41:27.728Z,16.50
2023-05-16T18:43:55.053Z,16.40
2023-05-16T18:46:22.173Z,16.50
2023-05-16T18:48:49.464Z,16.50
2023-05-16T18:51:17.047Z,16.50
2023-05-16T18:53:44.334Z,16.50
2023-05-16T18:56:11.569Z,16.50
2023-05-16T18:58:38.949Z,16.50
2023-05-16T19:01:06.114Z,16.50
2023-05-16T19:03:36.484Z,16.40
2023-05-16T19:06:07.297Z,16.40
2023-05-16T19:08:47.071Z,16.40
2023-05-16T19:11:19.595Z,16.40
2023-05-16T19:13:47.341Z,16.40
2023-05-16T19:16:15.119Z,16.40
2023-05-16T19:18:42.486Z,16.40
2023-05-16T19:21:11.167Z,16.40
2023-05-16T19:23:38.264Z,16.40
2023-05-16T19:26:05.544Z,16.40
2023-05-16T19:28:33.476Z,16.40
2023-05-16T19:31:00.974Z,16.40
2023-05-16T19:33:28.245Z,16.40
2023-05-16T19:35:58.707Z,16.40
2023-05-16T19:38:27.836Z,16.50
2023-05-16T19:40:55.156Z,16.40
2023-05-16T19:43:22.511Z,16.40
2023-05-16T19:45:52.868Z,16.40
2023-05-16T19:48:22.931Z,16.40
2023-05-16T19:50:53.801Z,16.40
2023-05-16T19:53:23.487Z,16.40
2023-05-16T19:55:54.042Z,16.30
2023-05-16T19:58:24.073Z,16.30
2023-05-16T20:00:51.671Z,16.30
2023-05-16T20:03:19.530Z,16.20
2023-05-16T20:05:49.455Z,16.20
2023-05-16T20:08:18.581Z,16.30
2023-05-16T20:10:48.558Z,16.30
2023-05-16T20:13:18.641Z,16.30
2023-05-16T20:15:46.457Z,16.30
2023-05-16T20:18:14.142Z,16.30
2023-05-16T20:20:42.538Z,16.30
2023-05-16T20:23:09.976Z,16.20
2023-05-16T20:25:37.620Z,16.30
2023-05-16T20:28:04.908Z,16.20
2023-05-16T20:30:32.749Z,16.10
2023-05-16T20:33:00.388Z,16.10
2023-05-16T20:35:28.061Z,16.00
2023-05-16T20:37:55.496Z,16.00
2023-05-16T20:40:23.309Z,15.90
2023-05-16T20:42:50.438Z,15.90
2023-05-16T20:45:17.680Z,15.90
2023-05-16T20:47:45.128Z,15.80
2023-05-16T20:50:12.375Z,15.80
2023-05-16T20:52:39.703Z,15.70
2023-05-16T20:55:07.376Z,15.60
2023-05-16T20:57:34.530Z,15.50
2023-05-16T21:00:01.812Z,15.50
2023-05-16T21:02:29.059Z,15.50
2023-05-16T21:04:59.223Z,15.50
2023-05-16T21:07:26.953Z,15.50
2023-05-16T21:09:54.713Z,15.40
2023-05-16T21:12:21.825Z,15.40
2023-05-16T21:14:48.924Z,15.50
2023-05-16T21:17:16.185Z,15.50
2023-05-16T21:19:43.461Z,15.50
2023-05-16T21:22:11.420Z,15.50
2023-05-16T21:24:38.633Z,15.50
2023-05-16T21:27:06.054Z,15.50
2023-05-16T21:29:33.310Z,15.50
2023-05-16T21:32:00.593Z,15.60
2023-05-16T21:34:27.884Z,15.60
2023-05-16T21:36:55.055Z,15.60
2023-05-16T21:39:22.304Z,15.60
2023-05-16T21:41:49.524Z,15.60
2023-05-16T21:44:18.628Z,15.50
2023-05-16T21:46:45.818Z,15.50
2023-05-16T21:49:13.217Z,15.60
2023-05-16T21:51:40.520Z,15.60
2023-05-16T21:54:07.743Z,15.50
2023-05-16T21:56:34.901Z,15.50
2023-05-16T21:59:02.053Z,15.50
2023-05-16T22:01:29.679Z,15.50
2023-05-16T22:03:57.937Z,15.50
2023-05-16T22:06:25.540Z,15.50
2023-05-16T22:08:53.401Z,15.60
2023-05-16T22:11:20.740Z,15.60
2023-05-16T22:13:48.118Z,15.50
2023-05-16T22:16:15.643Z,15.60
2023-05-16T22:18:43.054Z,15.60
2023-05-16T22:21:10.346Z,15.60
2023-05-16T22:23:37.921Z,15.60
2023-05-16T22:26:05.279Z,15.60
2023-05-16T22:28:32.572Z,15.60
2023-05-16T22:31:00.026Z,15.60
2023-05-16T22:33:27.330Z,15.60
2023-05-16T22:35:54.885Z,15.60
2023-05-16T22:38:22.057Z,15.60
2023-05-16T22:40:49.264Z,15.60
2023-05-16T22:43:16.545Z,15.60
2023-05-16T22:45:43.693Z,15.50
2023-05-16T22:48:10.971Z,15.50
2023-05-16T22:50:38.321Z,15.50
2023-05-16T22:53:05.425Z,15.60
2023-05-16T22:55:32.892Z,15.60
2023-05-16T22:58:00.835Z,15.50
2023-05-16T23:00:28.046Z,15.50
2023-05-16T23:02:55.325Z,15.50
2023-05-16T23:05:22.515Z,15.50
2023-05-16T23:07:49.812Z,15.40
2023-05-16T23:10:17.109Z,15.40
2023-05-16T23:12:44.379Z,15.40
2023-05-16T23:15:12.020Z,15.40
2023-05-16T23:17:39.455Z,15.30
2023-05-16T23:20:07.547Z,15.30
2023-05-16T23:22:34.778Z,15.30
2023-05-16T23:25:02.223Z,15.30
2023-05-16T23:27:29.413Z,15.30
2023-05-16T23:29:56.543Z,15.20
2023-05-16T23:32:23.860Z,15.20
2023-05-16T23:34:51.116Z,15.10
2023-05-16T23:37:18.361Z,15.20
2023-05-16T23:39:45.557Z,15.20
2023-05-16T23:42:12.947Z,15.20
2023-05-16T23:44:41.993Z,15.10
2023-05-16T23:47:09.580Z,15.20
2023-05-16T23:49:36.779Z,15.20
2023-05-16T23:52:06.072Z,15.10
2023-05-16T23:54:33.826Z,15.10
2023-05-16T23:57:01.460Z,15.00
2023-05-16T23:59:28.660Z,15.00
